sensor_id;sensor_type;location;lat;lon;timestamp;P1;durP1;ratioP1;P2;durP2;ratioP2
13571;SDS011;6857;53.484;10.216;2023-09-19T00:00:26;3.43;;;1.67;;
13571;SDS011;6857;53.484;10.216;2023-09-19T00:02:53;4.83;;;1.70;;
13571;SDS011;6857;53.484;10.216;2023-09-19T00:05:20;3.00;;;1.80;;
13571;SDS011;6857;53.484;10.216;2023-09-19T00:07:50;3.67;;;1.93;;
13571;SDS011;6857;53.484;10.216;2023-09-19T00:10:22;3.00;;;1.90;;
13571;SDS011;6857;53.484;10.216;2023-09-19T00:12:49;2.20;;;1.80;;
13571;SDS011;6857;53.484;10.216;2023-09-19T00:15:16;2.43;;;1.63;;
13571;SDS011;6857;53.484;10.216;2023-09-19T00:17:42;3.07;;;1.90;;
13571;SDS011;6857;53.484;10.216;2023-09-19T00:20:09;3.93;;;1.83;;
13571;SDS011;6857;53.484;10.216;2023-09-19T00:22:41;4.63;;;1.93;;
13571;SDS011;6857;53.484;10.216;2023-09-19T00:25:10;3.87;;;1.80;;
13571;SDS011;6857;53.484;10.216;2023-09-19T00:27:39;3.60;;;1.80;;
13571;SDS011;6857;53.484;10.216;2023-09-19T00:30:11;3.90;;;2.00;;
13571;SDS011;6857;53.484;10.216;2023-09-19T00:32:49;5.23;;;1.90;;
13571;SDS011;6857;53.484;10.216;2023-09-19T00:35:19;3.10;;;1.97;;
13571;SDS011;6857;53.484;10.216;2023-09-19T00:37:45;2.97;;;1.90;;
13571;SDS011;6857;53.484;10.216;2023-09-19T00:40:11;5.80;;;1.97;;
13571;SDS011;6857;53.484;10.216;2023-09-19T00:42:41;3.43;;;2.13;;
13571;SDS011;6857;53.484;10.216;2023-09-19T00:45:10;3.53;;;2.00;;
13571;SDS011;6857;53.484;10.216;2023-09-19T00:47:43;4.70;;;2.10;;
13571;SDS011;6857;53.484;10.216;2023-09-19T00:50:10;3.67;;;2.00;;
13571;SDS011;6857;53.484;10.216;2023-09-19T00:52:39;2.53;;;2.00;;
13571;SDS011;6857;53.484;10.216;2023-09-19T00:55:06;3.80;;;1.90;;
13571;SDS011;6857;53.484;10.216;2023-09-19T00:57:33;2.80;;;2.17;;
13571;SDS011;6857;53.484;10.216;2023-09-19T01:00:00;4.47;;;1.93;;
13571;SDS011;6857;53.484;10.216;2023-09-19T01:02:30;3.83;;;2.10;;
13571;SDS011;6857;53.484;10.216;2023-09-19T01:04:56;5.07;;;2.43;;
13571;SDS011;6857;53.484;10.216;2023-09-19T01:07:23;3.73;;;2.30;;
13571;SDS011;6857;53.484;10.216;2023-09-19T01:09:49;4.37;;;2.43;;
13571;SDS011;6857;53.484;10.216;2023-09-19T01:12:16;3.63;;;2.27;;
13571;SDS011;6857;53.484;10.216;2023-09-19T01:14:54;5.10;;;2.80;;
13571;SDS011;6857;53.484;10.216;2023-09-19T01:17:25;5.83;;;2.60;;
13571;SDS011;6857;53.484;10.216;2023-09-19T01:25:07;9.43;;;2.70;;
13571;SDS011;6857;53.484;10.216;2023-09-19T01:30:20;4.80;;;2.93;;
13571;SDS011;6857;53.484;10.216;2023-09-19T01:32:49;6.33;;;3.60;;
13571;SDS011;6857;53.484;10.216;2023-09-19T01:35:17;4.07;;;3.10;;
13571;SDS011;6857;53.484;10.216;2023-09-19T01:37:43;4.13;;;3.10;;
13571;SDS011;6857;53.484;10.216;2023-09-19T01:40:10;5.37;;;3.30;;
13571;SDS011;6857;53.484;10.216;2023-09-19T01:48:01;5.37;;;3.47;;
13571;SDS011;6857;53.484;10.216;2023-09-19T01:50:33;5.57;;;3.00;;
13571;SDS011;6857;53.484;10.216;2023-09-19T01:53:07;5.77;;;3.03;;
13571;SDS011;6857;53.484;10.216;2023-09-19T01:55:43;4.93;;;2.93;;
13571;SDS011;6857;53.484;10.216;2023-09-19T01:58:14;5.23;;;3.20;;
13571;SDS011;6857;53.484;10.216;2023-09-19T02:00:41;4.67;;;2.87;;
13571;SDS011;6857;53.484;10.216;2023-09-19T02:03:09;4.60;;;2.97;;
13571;SDS011;6857;53.484;10.216;2023-09-19T02:05:35;5.53;;;3.27;;
13571;SDS011;6857;53.484;10.216;2023-09-19T02:08:01;4.30;;;3.00;;
13571;SDS011;6857;53.484;10.216;2023-09-19T02:10:27;8.07;;;3.00;;
13571;SDS011;6857;53.484;10.216;2023-09-19T02:12:53;4.23;;;2.80;;
13571;SDS011;6857;53.484;10.216;2023-09-19T02:15:19;6.20;;;3.30;;
13571;SDS011;6857;53.484;10.216;2023-09-19T02:17:47;4.83;;;3.60;;
13571;SDS011;6857;53.484;10.216;2023-09-19T02:20:13;4.87;;;3.10;;
13571;SDS011;6857;53.484;10.216;2023-09-19T02:22:40;5.33;;;3.10;;
13571;SDS011;6857;53.484;10.216;2023-09-19T02:25:06;8.30;;;3.27;;
13571;SDS011;6857;53.484;10.216;2023-09-19T02:27:33;5.73;;;3.27;;
13571;SDS011;6857;53.484;10.216;2023-09-19T02:29:59;5.37;;;3.37;;
13571;SDS011;6857;53.484;10.216;2023-09-19T02:32:29;5.53;;;3.47;;
13571;SDS011;6857;53.484;10.216;2023-09-19T02:34:56;5.43;;;3.30;;
13571;SDS011;6857;53.484;10.216;2023-09-19T02:37:22;5.13;;;3.07;;
13571;SDS011;6857;53.484;10.216;2023-09-19T02:39:48;4.53;;;3.00;;
13571;SDS011;6857;53.484;10.216;2023-09-19T02:42:14;6.30;;;3.30;;
13571;SDS011;6857;53.484;10.216;2023-09-19T02:44:40;6.10;;;3.43;;
13571;SDS011;6857;53.484;10.216;2023-09-19T02:47:06;6.03;;;3.40;;
13571;SDS011;6857;53.484;10.216;2023-09-19T02:49:32;5.43;;;3.40;;
13571;SDS011;6857;53.484;10.216;2023-09-19T02:51:59;6.03;;;4.00;;
13571;SDS011;6857;53.484;10.216;2023-09-19T02:54:25;6.07;;;3.50;;
13571;SDS011;6857;53.484;10.216;2023-09-19T02:56:51;5.97;;;3.30;;
13571;SDS011;6857;53.484;10.216;2023-09-19T02:59:18;4.73;;;3.40;;
13571;SDS011;6857;53.484;10.216;2023-09-19T03:01:44;7.00;;;3.37;;
13571;SDS011;6857;53.484;10.216;2023-09-19T03:04:13;6.20;;;3.07;;
13571;SDS011;6857;53.484;10.216;2023-09-19T03:06:38;7.10;;;3.50;;
13571;SDS011;6857;53.484;10.216;2023-09-19T03:09:05;7.20;;;3.80;;
13571;SDS011;6857;53.484;10.216;2023-09-19T03:11:37;6.80;;;3.30;;
13571;SDS011;6857;53.484;10.216;2023-09-19T03:14:05;5.80;;;3.23;;
13571;SDS011;6857;53.484;10.216;2023-09-19T03:16:30;4.93;;;3.20;;
13571;SDS011;6857;53.484;10.216;2023-09-19T03:18:56;6.53;;;3.53;;
13571;SDS011;6857;53.484;10.216;2023-09-19T03:21:24;7.10;;;3.40;;
13571;SDS011;6857;53.484;10.216;2023-09-19T03:23:50;8.47;;;3.50;;
13571;SDS011;6857;53.484;10.216;2023-09-19T03:26:16;6.87;;;2.83;;
13571;SDS011;6857;53.484;10.216;2023-09-19T03:28:42;7.40;;;2.90;;
13571;SDS011;6857;53.484;10.216;2023-09-19T03:31:08;5.43;;;2.63;;
13571;SDS011;6857;53.484;10.216;2023-09-19T03:33:35;4.50;;;2.70;;
13571;SDS011;6857;53.484;10.216;2023-09-19T03:36:02;4.40;;;2.70;;
13571;SDS011;6857;53.484;10.216;2023-09-19T03:38:32;5.13;;;2.73;;
13571;SDS011;6857;53.484;10.216;2023-09-19T03:40:59;5.00;;;2.57;;
13571;SDS011;6857;53.484;10.216;2023-09-19T03:43:25;6.30;;;2.80;;
13571;SDS011;6857;53.484;10.216;2023-09-19T03:45:51;3.50;;;2.40;;
13571;SDS011;6857;53.484;10.216;2023-09-19T03:48:18;6.83;;;2.97;;
13571;SDS011;6857;53.484;10.216;2023-09-19T03:50:46;5.43;;;2.83;;
13571;SDS011;6857;53.484;10.216;2023-09-19T03:53:12;4.53;;;2.20;;
13571;SDS011;6857;53.484;10.216;2023-09-19T03:55:38;7.47;;;2.53;;
13571;SDS011;6857;53.484;10.216;2023-09-19T03:58:05;7.00;;;2.30;;
13571;SDS011;6857;53.484;10.216;2023-09-19T04:00:31;2.47;;;1.97;;
13571;SDS011;6857;53.484;10.216;2023-09-19T04:02:59;4.43;;;2.10;;
13571;SDS011;6857;53.484;10.216;2023-09-19T04:05:27;4.80;;;1.97;;
13571;SDS011;6857;53.484;10.216;2023-09-19T04:07:53;6.23;;;1.80;;
13571;SDS011;6857;53.484;10.216;2023-09-19T04:10:19;3.87;;;1.70;;
13571;SDS011;6857;53.484;10.216;2023-09-19T04:12:52;3.57;;;1.40;;
13571;SDS011;6857;53.484;10.216;2023-09-19T04:15:18;4.23;;;1.43;;
13571;SDS011;6857;53.484;10.216;2023-09-19T04:17:44;3.87;;;1.50;;
13571;SDS011;6857;53.484;10.216;2023-09-19T04:20:10;3.30;;;1.27;;
13571;SDS011;6857;53.484;10.216;2023-09-19T04:22:37;3.87;;;1.40;;
13571;SDS011;6857;53.484;10.216;2023-09-19T04:25:04;6.67;;;1.53;;
13571;SDS011;6857;53.484;10.216;2023-09-19T04:27:31;2.43;;;1.20;;
13571;SDS011;6857;53.484;10.216;2023-09-19T04:29:57;1.50;;;1.20;;
13571;SDS011;6857;53.484;10.216;2023-09-19T04:32:27;2.77;;;1.30;;
13571;SDS011;6857;53.484;10.216;2023-09-19T04:34:54;6.20;;;1.83;;
13571;SDS011;6857;53.484;10.216;2023-09-19T04:37:24;7.30;;;1.70;;
13571;SDS011;6857;53.484;10.216;2023-09-19T04:39:50;5.77;;;1.50;;
13571;SDS011;6857;53.484;10.216;2023-09-19T04:42:16;7.50;;;1.40;;
13571;SDS011;6857;53.484;10.216;2023-09-19T04:44:42;4.53;;;1.37;;
13571;SDS011;6857;53.484;10.216;2023-09-19T04:47:08;3.60;;;1.60;;
13571;SDS011;6857;53.484;10.216;2023-09-19T04:49:37;6.17;;;1.50;;
13571;SDS011;6857;53.484;10.216;2023-09-19T04:52:04;5.83;;;1.73;;
13571;SDS011;6857;53.484;10.216;2023-09-19T04:54:30;4.03;;;1.47;;
13571;SDS011;6857;53.484;10.216;2023-09-19T04:56:56;4.77;;;1.80;;
13571;SDS011;6857;53.484;10.216;2023-09-19T04:59:22;6.00;;;1.60;;
13571;SDS011;6857;53.484;10.216;2023-09-19T05:01:48;6.10;;;1.60;;
13571;SDS011;6857;53.484;10.216;2023-09-19T05:04:14;6.93;;;1.73;;
13571;SDS011;6857;53.484;10.216;2023-09-19T05:06:41;6.70;;;1.90;;
13571;SDS011;6857;53.484;10.216;2023-09-19T05:09:07;7.53;;;1.80;;
13571;SDS011;6857;53.484;10.216;2023-09-19T05:11:33;4.60;;;1.87;;
13571;SDS011;6857;53.484;10.216;2023-09-19T05:13:59;4.00;;;1.50;;
13571;SDS011;6857;53.484;10.216;2023-09-19T05:16:29;4.10;;;1.50;;
13571;SDS011;6857;53.484;10.216;2023-09-19T05:18:58;7.53;;;2.00;;
13571;SDS011;6857;53.484;10.216;2023-09-19T05:21:27;6.73;;;1.57;;
13571;SDS011;6857;53.484;10.216;2023-09-19T05:23:55;6.90;;;1.70;;
13571;SDS011;6857;53.484;10.216;2023-09-19T05:26:21;6.53;;;1.70;;
13571;SDS011;6857;53.484;10.216;2023-09-19T05:28:47;6.27;;;2.00;;
13571;SDS011;6857;53.484;10.216;2023-09-19T05:31:13;7.23;;;2.00;;
13571;SDS011;6857;53.484;10.216;2023-09-19T05:33:41;7.73;;;2.30;;
13571;SDS011;6857;53.484;10.216;2023-09-19T05:36:07;8.83;;;1.90;;
13571;SDS011;6857;53.484;10.216;2023-09-19T05:38:37;5.33;;;2.10;;
13571;SDS011;6857;53.484;10.216;2023-09-19T05:41:07;5.63;;;2.60;;
13571;SDS011;6857;53.484;10.216;2023-09-19T05:43:34;4.27;;;2.30;;
13571;SDS011;6857;53.484;10.216;2023-09-19T05:46:02;10.00;;;3.70;;
13571;SDS011;6857;53.484;10.216;2023-09-19T05:48:28;9.17;;;2.40;;
13571;SDS011;6857;53.484;10.216;2023-09-19T05:50:54;5.90;;;1.80;;
13571;SDS011;6857;53.484;10.216;2023-09-19T05:53:20;4.50;;;1.73;;
13571;SDS011;6857;53.484;10.216;2023-09-19T05:55:48;5.30;;;2.17;;
13571;SDS011;6857;53.484;10.216;2023-09-19T05:58:14;6.13;;;2.07;;
13571;SDS011;6857;53.484;10.216;2023-09-19T06:00:42;8.33;;;3.63;;
13571;SDS011;6857;53.484;10.216;2023-09-19T06:03:09;4.43;;;1.73;;
13571;SDS011;6857;53.484;10.216;2023-09-19T06:05:38;5.20;;;1.97;;
13571;SDS011;6857;53.484;10.216;2023-09-19T06:08:06;4.97;;;1.73;;
13571;SDS011;6857;53.484;10.216;2023-09-19T06:10:32;5.53;;;2.13;;
13571;SDS011;6857;53.484;10.216;2023-09-19T06:12:59;4.37;;;2.10;;
13571;SDS011;6857;53.484;10.216;2023-09-19T06:15:25;6.00;;;2.07;;
13571;SDS011;6857;53.484;10.216;2023-09-19T06:17:52;6.43;;;2.10;;
13571;SDS011;6857;53.484;10.216;2023-09-19T06:20:21;8.20;;;2.10;;
13571;SDS011;6857;53.484;10.216;2023-09-19T06:22:48;8.87;;;2.20;;
13571;SDS011;6857;53.484;10.216;2023-09-19T06:25:14;5.43;;;1.63;;
13571;SDS011;6857;53.484;10.216;2023-09-19T06:27:53;9.37;;;2.13;;
13571;SDS011;6857;53.484;10.216;2023-09-19T06:30:21;7.73;;;2.60;;
13571;SDS011;6857;53.484;10.216;2023-09-19T06:32:48;5.40;;;2.13;;
13571;SDS011;6857;53.484;10.216;2023-09-19T06:35:15;6.97;;;2.10;;
13571;SDS011;6857;53.484;10.216;2023-09-19T06:37:42;7.87;;;2.97;;
13571;SDS011;6857;53.484;10.216;2023-09-19T06:40:09;11.73;;;2.50;;
13571;SDS011;6857;53.484;10.216;2023-09-19T06:43:12;7.77;;;2.33;;
13571;SDS011;6857;53.484;10.216;2023-09-19T06:45:31;9.37;;;2.30;;
13571;SDS011;6857;53.484;10.216;2023-09-19T06:47:57;8.97;;;2.00;;
13571;SDS011;6857;53.484;10.216;2023-09-19T06:50:25;4.43;;;2.07;;
13571;SDS011;6857;53.484;10.216;2023-09-19T06:52:52;5.07;;;2.20;;
13571;SDS011;6857;53.484;10.216;2023-09-19T06:55:20;8.17;;;2.47;;
13571;SDS011;6857;53.484;10.216;2023-09-19T06:57:46;8.17;;;1.93;;
13571;SDS011;6857;53.484;10.216;2023-09-19T07:00:13;5.80;;;2.33;;
13571;SDS011;6857;53.484;10.216;2023-09-19T07:05:30;9.13;;;2.27;;
13571;SDS011;6857;53.484;10.216;2023-09-19T07:07:57;7.10;;;2.07;;
13571;SDS011;6857;53.484;10.216;2023-09-19T07:10:24;5.73;;;2.17;;
13571;SDS011;6857;53.484;10.216;2023-09-19T07:13:02;4.70;;;2.20;;
13571;SDS011;6857;53.484;10.216;2023-09-19T07:15:28;5.97;;;2.27;;
13571;SDS011;6857;53.484;10.216;2023-09-19T07:17:55;9.03;;;2.57;;
13571;SDS011;6857;53.484;10.216;2023-09-19T07:20:22;5.87;;;1.90;;
13571;SDS011;6857;53.484;10.216;2023-09-19T07:22:51;8.00;;;2.43;;
13571;SDS011;6857;53.484;10.216;2023-09-19T07:25:17;7.30;;;2.20;;
13571;SDS011;6857;53.484;10.216;2023-09-19T07:27:43;10.20;;;2.70;;
13571;SDS011;6857;53.484;10.216;2023-09-19T07:30:10;10.13;;;2.70;;
13571;SDS011;6857;53.484;10.216;2023-09-19T07:32:36;6.77;;;2.27;;
13571;SDS011;6857;53.484;10.216;2023-09-19T07:35:03;9.37;;;3.10;;
13571;SDS011;6857;53.484;10.216;2023-09-19T07:37:30;8.07;;;2.27;;
13571;SDS011;6857;53.484;10.216;2023-09-19T07:39:58;10.37;;;2.43;;
13571;SDS011;6857;53.484;10.216;2023-09-19T07:42:24;10.03;;;2.40;;
13571;SDS011;6857;53.484;10.216;2023-09-19T07:44:50;8.70;;;2.60;;
13571;SDS011;6857;53.484;10.216;2023-09-19T07:47:18;8.20;;;2.80;;
13571;SDS011;6857;53.484;10.216;2023-09-19T07:49:46;11.53;;;3.13;;
13571;SDS011;6857;53.484;10.216;2023-09-19T07:52:12;7.90;;;2.47;;
13571;SDS011;6857;53.484;10.216;2023-09-19T07:54:39;7.17;;;2.80;;
13571;SDS011;6857;53.484;10.216;2023-09-19T07:57:06;9.77;;;2.67;;
13571;SDS011;6857;53.484;10.216;2023-09-19T07:59:32;10.63;;;2.90;;
13571;SDS011;6857;53.484;10.216;2023-09-19T08:01:58;9.27;;;2.73;;
13571;SDS011;6857;53.484;10.216;2023-09-19T08:04:25;7.83;;;2.50;;
13571;SDS011;6857;53.484;10.216;2023-09-19T08:06:51;7.97;;;2.97;;
13571;SDS011;6857;53.484;10.216;2023-09-19T08:09:17;8.33;;;2.60;;
13571;SDS011;6857;53.484;10.216;2023-09-19T08:11:46;7.00;;;2.37;;
13571;SDS011;6857;53.484;10.216;2023-09-19T08:14:13;7.67;;;2.57;;
13571;SDS011;6857;53.484;10.216;2023-09-19T08:16:39;7.30;;;2.33;;
13571;SDS011;6857;53.484;10.216;2023-09-19T08:19:07;8.60;;;2.60;;
13571;SDS011;6857;53.484;10.216;2023-09-19T08:21:33;7.70;;;2.60;;
13571;SDS011;6857;53.484;10.216;2023-09-19T08:23:59;7.90;;;3.63;;
13571;SDS011;6857;53.484;10.216;2023-09-19T08:26:27;7.57;;;2.43;;
13571;SDS011;6857;53.484;10.216;2023-09-19T08:28:53;8.23;;;2.50;;
13571;SDS011;6857;53.484;10.216;2023-09-19T08:31:20;8.20;;;2.40;;
13571;SDS011;6857;53.484;10.216;2023-09-19T08:33:51;9.03;;;2.70;;
13571;SDS011;6857;53.484;10.216;2023-09-19T08:36:17;8.67;;;2.33;;
13571;SDS011;6857;53.484;10.216;2023-09-19T08:38:44;8.90;;;2.37;;
13571;SDS011;6857;53.484;10.216;2023-09-19T08:41:10;12.17;;;2.87;;
13571;SDS011;6857;53.484;10.216;2023-09-19T08:43:35;6.57;;;2.60;;
13571;SDS011;6857;53.484;10.216;2023-09-19T08:48:31;9.03;;;3.03;;
13571;SDS011;6857;53.484;10.216;2023-09-19T08:51:06;5.60;;;2.73;;
13571;SDS011;6857;53.484;10.216;2023-09-19T08:53:51;7.70;;;2.23;;
13571;SDS011;6857;53.484;10.216;2023-09-19T08:56:20;8.60;;;2.73;;
13571;SDS011;6857;53.484;10.216;2023-09-19T08:58:49;8.37;;;2.37;;
13571;SDS011;6857;53.484;10.216;2023-09-19T09:01:18;10.43;;;2.30;;
13571;SDS011;6857;53.484;10.216;2023-09-19T09:03:49;6.97;;;2.63;;
13571;SDS011;6857;53.484;10.216;2023-09-19T09:06:15;7.37;;;2.33;;
13571;SDS011;6857;53.484;10.216;2023-09-19T09:08:42;10.13;;;2.60;;
13571;SDS011;6857;53.484;10.216;2023-09-19T09:11:08;7.03;;;2.40;;
13571;SDS011;6857;53.484;10.216;2023-09-19T09:13:35;5.77;;;2.17;;
13571;SDS011;6857;53.484;10.216;2023-09-19T09:16:06;7.27;;;2.20;;
13571;SDS011;6857;53.484;10.216;2023-09-19T09:18:32;15.37;;;3.20;;
13571;SDS011;6857;53.484;10.216;2023-09-19T09:20:59;7.87;;;2.30;;
13571;SDS011;6857;53.484;10.216;2023-09-19T09:23:26;8.90;;;2.37;;
13571;SDS011;6857;53.484;10.216;2023-09-19T09:25:55;9.00;;;2.00;;
13571;SDS011;6857;53.484;10.216;2023-09-19T09:28:34;9.00;;;2.43;;
13571;SDS011;6857;53.484;10.216;2023-09-19T09:31:02;7.60;;;2.40;;
13571;SDS011;6857;53.484;10.216;2023-09-19T09:33:34;7.00;;;2.20;;
13571;SDS011;6857;53.484;10.216;2023-09-19T09:36:02;5.80;;;2.23;;
13571;SDS011;6857;53.484;10.216;2023-09-19T09:38:29;11.60;;;2.43;;
13571;SDS011;6857;53.484;10.216;2023-09-19T09:40:59;9.00;;;2.90;;
13571;SDS011;6857;53.484;10.216;2023-09-19T09:43:34;10.33;;;2.30;;
13571;SDS011;6857;53.484;10.216;2023-09-19T09:51:58;8.87;;;3.07;;
13571;SDS011;6857;53.484;10.216;2023-09-19T09:54:28;6.80;;;2.03;;
13571;SDS011;6857;53.484;10.216;2023-09-19T09:57:00;8.20;;;1.97;;
13571;SDS011;6857;53.484;10.216;2023-09-19T09:59:51;6.77;;;2.40;;
13571;SDS011;6857;53.484;10.216;2023-09-19T10:02:28;6.07;;;2.10;;
13571;SDS011;6857;53.484;10.216;2023-09-19T10:04:57;8.33;;;2.13;;
13571;SDS011;6857;53.484;10.216;2023-09-19T10:07:30;9.10;;;1.97;;
13571;SDS011;6857;53.484;10.216;2023-09-19T10:10:01;7.27;;;1.90;;
13571;SDS011;6857;53.484;10.216;2023-09-19T10:12:48;8.40;;;2.10;;
13571;SDS011;6857;53.484;10.216;2023-09-19T10:15:18;7.50;;;2.30;;
13571;SDS011;6857;53.484;10.216;2023-09-19T10:17:49;6.07;;;1.90;;
13571;SDS011;6857;53.484;10.216;2023-09-19T10:20:19;8.47;;;2.03;;
13571;SDS011;6857;53.484;10.216;2023-09-19T10:23:07;8.80;;;1.80;;
13571;SDS011;6857;53.484;10.216;2023-09-19T10:25:36;6.27;;;1.93;;
13571;SDS011;6857;53.484;10.216;2023-09-19T10:28:02;6.47;;;1.93;;
13571;SDS011;6857;53.484;10.216;2023-09-19T10:30:30;6.87;;;1.70;;
13571;SDS011;6857;53.484;10.216;2023-09-19T10:32:59;5.30;;;1.70;;
13571;SDS011;6857;53.484;10.216;2023-09-19T10:35:25;4.00;;;1.50;;
13571;SDS011;6857;53.484;10.216;2023-09-19T10:37:53;5.77;;;1.73;;
13571;SDS011;6857;53.484;10.216;2023-09-19T10:40:20;6.87;;;1.90;;
13571;SDS011;6857;53.484;10.216;2023-09-19T10:42:51;8.67;;;2.07;;
13571;SDS011;6857;53.484;10.216;2023-09-19T10:45:18;7.20;;;2.00;;
13571;SDS011;6857;53.484;10.216;2023-09-19T10:47:45;8.17;;;4.03;;
13571;SDS011;6857;53.484;10.216;2023-09-19T10:50:19;5.53;;;2.00;;
13571;SDS011;6857;53.484;10.216;2023-09-19T10:52:46;3.77;;;1.73;;
13571;SDS011;6857;53.484;10.216;2023-09-19T10:55:18;6.10;;;2.00;;
13571;SDS011;6857;53.484;10.216;2023-09-19T10:57:47;7.60;;;2.07;;
13571;SDS011;6857;53.484;10.216;2023-09-19T11:00:13;7.57;;;1.90;;
13571;SDS011;6857;53.484;10.216;2023-09-19T11:03:16;8.50;;;1.80;;
13571;SDS011;6857;53.484;10.216;2023-09-19T11:06:06;8.07;;;2.10;;
13571;SDS011;6857;53.484;10.216;2023-09-19T11:08:51;6.30;;;2.23;;
13571;SDS011;6857;53.484;10.216;2023-09-19T11:16:40;8.80;;;3.60;;
13571;SDS011;6857;53.484;10.216;2023-09-19T11:19:08;7.47;;;2.50;;
13571;SDS011;6857;53.484;10.216;2023-09-19T11:26:44;6.17;;;2.10;;
13571;SDS011;6857;53.484;10.216;2023-09-19T11:29:28;5.63;;;1.83;;
13571;SDS011;6857;53.484;10.216;2023-09-19T11:31:55;8.03;;;1.97;;
13571;SDS011;6857;53.484;10.216;2023-09-19T11:37:03;5.17;;;2.00;;
13571;SDS011;6857;53.484;10.216;2023-09-19T11:40:07;7.00;;;2.13;;
13571;SDS011;6857;53.484;10.216;2023-09-19T11:42:46;4.53;;;1.70;;
13571;SDS011;6857;53.484;10.216;2023-09-19T11:48:20;5.40;;;2.20;;
13571;SDS011;6857;53.484;10.216;2023-09-19T11:50:50;7.20;;;2.80;;
13571;SDS011;6857;53.484;10.216;2023-09-19T11:53:17;7.33;;;2.33;;
13571;SDS011;6857;53.484;10.216;2023-09-19T11:55:44;5.33;;;1.90;;
13571;SDS011;6857;53.484;10.216;2023-09-19T11:58:11;5.27;;;1.70;;
13571;SDS011;6857;53.484;10.216;2023-09-19T12:00:39;9.03;;;2.40;;
13571;SDS011;6857;53.484;10.216;2023-09-19T12:03:10;6.00;;;1.90;;
13571;SDS011;6857;53.484;10.216;2023-09-19T12:05:36;8.20;;;3.17;;
13571;SDS011;6857;53.484;10.216;2023-09-19T12:08:05;9.13;;;2.80;;
13571;SDS011;6857;53.484;10.216;2023-09-19T12:10:34;7.90;;;2.30;;
13571;SDS011;6857;53.484;10.216;2023-09-19T12:13:09;7.20;;;2.13;;
13571;SDS011;6857;53.484;10.216;2023-09-19T12:15:37;7.80;;;2.80;;
13571;SDS011;6857;53.484;10.216;2023-09-19T12:18:05;8.43;;;2.53;;
13571;SDS011;6857;53.484;10.216;2023-09-19T12:20:43;9.83;;;2.30;;
13571;SDS011;6857;53.484;10.216;2023-09-19T12:23:13;11.90;;;2.53;;
13571;SDS011;6857;53.484;10.216;2023-09-19T12:25:43;8.07;;;2.17;;
13571;SDS011;6857;53.484;10.216;2023-09-19T12:28:12;9.73;;;2.50;;
13571;SDS011;6857;53.484;10.216;2023-09-19T12:30:38;6.57;;;1.80;;
13571;SDS011;6857;53.484;10.216;2023-09-19T12:33:14;7.77;;;2.40;;
13571;SDS011;6857;53.484;10.216;2023-09-19T12:35:40;7.53;;;2.40;;
13571;SDS011;6857;53.484;10.216;2023-09-19T12:38:09;8.17;;;2.10;;
13571;SDS011;6857;53.484;10.216;2023-09-19T12:40:37;10.47;;;2.10;;
13571;SDS011;6857;53.484;10.216;2023-09-19T12:43:03;8.63;;;2.17;;
13571;SDS011;6857;53.484;10.216;2023-09-19T12:45:31;14.73;;;3.50;;
13571;SDS011;6857;53.484;10.216;2023-09-19T12:51:02;7.17;;;2.33;;
13571;SDS011;6857;53.484;10.216;2023-09-19T12:53:38;10.03;;;2.63;;
13571;SDS011;6857;53.484;10.216;2023-09-19T12:56:11;8.87;;;2.20;;
13571;SDS011;6857;53.484;10.216;2023-09-19T12:58:51;8.43;;;2.80;;
13571;SDS011;6857;53.484;10.216;2023-09-19T13:01:19;6.50;;;2.77;;
13571;SDS011;6857;53.484;10.216;2023-09-19T13:03:45;7.80;;;2.40;;
13571;SDS011;6857;53.484;10.216;2023-09-19T13:06:11;7.27;;;2.50;;
13571;SDS011;6857;53.484;10.216;2023-09-19T13:08:39;9.87;;;3.50;;
13571;SDS011;6857;53.484;10.216;2023-09-19T13:11:08;7.30;;;2.37;;
13571;SDS011;6857;53.484;10.216;2023-09-19T13:14:23;5.47;;;1.87;;
13571;SDS011;6857;53.484;10.216;2023-09-19T13:16:26;6.20;;;2.27;;
13571;SDS011;6857;53.484;10.216;2023-09-19T13:18:55;6.50;;;2.23;;
13571;SDS011;6857;53.484;10.216;2023-09-19T13:21:28;10.03;;;2.37;;
13571;SDS011;6857;53.484;10.216;2023-09-19T13:23:55;8.57;;;2.60;;
13571;SDS011;6857;53.484;10.216;2023-09-19T13:26:26;8.53;;;2.83;;
13571;SDS011;6857;53.484;10.216;2023-09-19T13:28:53;8.30;;;2.63;;
13571;SDS011;6857;53.484;10.216;2023-09-19T13:31:19;9.73;;;2.90;;
13571;SDS011;6857;53.484;10.216;2023-09-19T13:33:46;8.07;;;2.77;;
13571;SDS011;6857;53.484;10.216;2023-09-19T13:36:12;10.10;;;2.23;;
13571;SDS011;6857;53.484;10.216;2023-09-19T13:38:42;11.70;;;2.53;;
13571;SDS011;6857;53.484;10.216;2023-09-19T13:41:11;7.67;;;2.50;;
13571;SDS011;6857;53.484;10.216;2023-09-19T13:43:37;6.07;;;2.07;;
13571;SDS011;6857;53.484;10.216;2023-09-19T13:46:04;5.40;;;2.27;;
13571;SDS011;6857;53.484;10.216;2023-09-19T13:48:30;7.63;;;2.50;;
13571;SDS011;6857;53.484;10.216;2023-09-19T13:50:56;7.45;;;2.30;;
13571;SDS011;6857;53.484;10.216;2023-09-19T13:53:22;8.53;;;2.30;;
13571;SDS011;6857;53.484;10.216;2023-09-19T13:55:48;4.15;;;1.92;;
13571;SDS011;6857;53.484;10.216;2023-09-19T13:58:14;13.25;;;2.88;;
13571;SDS011;6857;53.484;10.216;2023-09-19T14:00:40;7.47;;;2.20;;
13571;SDS011;6857;53.484;10.216;2023-09-19T14:03:06;7.07;;;2.15;;
13571;SDS011;6857;53.484;10.216;2023-09-19T14:05:32;6.65;;;2.22;;
13571;SDS011;6857;53.484;10.216;2023-09-19T14:07:58;6.93;;;2.30;;
13571;SDS011;6857;53.484;10.216;2023-09-19T14:10:25;7.38;;;2.22;;
13571;SDS011;6857;53.484;10.216;2023-09-19T14:12:52;4.70;;;2.00;;
13571;SDS011;6857;53.484;10.216;2023-09-19T14:15:18;12.43;;;3.67;;
13571;SDS011;6857;53.484;10.216;2023-09-19T14:17:44;7.43;;;2.20;;
13571;SDS011;6857;53.484;10.216;2023-09-19T14:20:11;7.45;;;2.17;;
13571;SDS011;6857;53.484;10.216;2023-09-19T14:22:37;7.60;;;2.10;;
13571;SDS011;6857;53.484;10.216;2023-09-19T14:25:03;6.23;;;2.10;;
13571;SDS011;6857;53.484;10.216;2023-09-19T14:27:29;7.07;;;2.30;;
13571;SDS011;6857;53.484;10.216;2023-09-19T14:29:55;4.00;;;2.00;;
13571;SDS011;6857;53.484;10.216;2023-09-19T14:32:24;4.50;;;2.20;;
13571;SDS011;6857;53.484;10.216;2023-09-19T14:34:51;5.82;;;2.00;;
13571;SDS011;6857;53.484;10.216;2023-09-19T14:37:17;7.72;;;2.50;;
13571;SDS011;6857;53.484;10.216;2023-09-19T14:39:46;9.70;;;2.28;;
13571;SDS011;6857;53.484;10.216;2023-09-19T14:42:12;5.33;;;2.60;;
13571;SDS011;6857;53.484;10.216;2023-09-19T14:44:42;9.60;;;2.13;;
13571;SDS011;6857;53.484;10.216;2023-09-19T14:47:08;8.00;;;2.63;;
13571;SDS011;6857;53.484;10.216;2023-09-19T14:49:34;5.57;;;2.00;;
13571;SDS011;6857;53.484;10.216;2023-09-19T14:52:02;7.27;;;2.17;;
13571;SDS011;6857;53.484;10.216;2023-09-19T14:54:29;10.03;;;2.53;;
13571;SDS011;6857;53.484;10.216;2023-09-19T14:56:55;8.07;;;2.40;;
13571;SDS011;6857;53.484;10.216;2023-09-19T14:59:32;7.30;;;2.10;;
13571;SDS011;6857;53.484;10.216;2023-09-19T15:01:59;6.63;;;2.13;;
13571;SDS011;6857;53.484;10.216;2023-09-19T15:04:26;5.67;;;2.50;;
13571;SDS011;6857;53.484;10.216;2023-09-19T15:06:53;6.33;;;2.00;;
13571;SDS011;6857;53.484;10.216;2023-09-19T15:09:20;6.50;;;2.57;;
13571;SDS011;6857;53.484;10.216;2023-09-19T15:11:51;8.23;;;2.30;;
13571;SDS011;6857;53.484;10.216;2023-09-19T15:14:17;8.40;;;2.67;;
13571;SDS011;6857;53.484;10.216;2023-09-19T15:16:43;8.73;;;3.17;;
13571;SDS011;6857;53.484;10.216;2023-09-19T15:19:09;6.83;;;2.50;;
13571;SDS011;6857;53.484;10.216;2023-09-19T15:21:36;6.63;;;2.33;;
13571;SDS011;6857;53.484;10.216;2023-09-19T15:24:05;8.80;;;2.83;;
13571;SDS011;6857;53.484;10.216;2023-09-19T15:26:35;8.00;;;2.60;;
13571;SDS011;6857;53.484;10.216;2023-09-19T15:29:05;8.40;;;2.67;;
13571;SDS011;6857;53.484;10.216;2023-09-19T15:31:31;7.13;;;2.80;;
13571;SDS011;6857;53.484;10.216;2023-09-19T15:33:57;9.20;;;3.40;;
13571;SDS011;6857;53.484;10.216;2023-09-19T15:36:23;6.53;;;2.80;;
13571;SDS011;6857;53.484;10.216;2023-09-19T15:38:59;7.63;;;2.67;;